Eltham, United Kingdom
Current Conditions -  °F | °C
As of 8:50 AM on Wednesday 26 Nov 2014 (Local Time) from EGLC Reporting Station
Drizzle Drizzle  
Wind Chill: 48°   Ceiling: 200
Heat Index: 48°   Visibility: 1.2mi
Dew Point: 46°   Wind: 3mph
Humidity: 93%   Direction: 60°ENE
Pressure: 29.88"   Gusts: NA
Location:  51.45°N, 0.06°E
Report Text: EGLC 260850Z 06003KT 2000 -DZ BR BKN002 09/08 Q1012
Loading
Personal Weather Stations






























Interactive Weather Map New forecast layout! Learn more

10-Day Weather Forecast

Advertisements
Track Severe Weather on mobile